createdAt,value
2022-10-01T00:02:08.823Z,98867.13
2022-10-01T00:04:37.871Z,98864.45
2022-10-01T00:07:09.868Z,98858.05
2022-10-01T00:09:38.675Z,98859.80
2022-10-01T00:12:07.493Z,98855.17
2022-10-01T00:14:39.476Z,98852.00
2022-10-01T00:17:07.656Z,98858.76
2022-10-01T00:19:35.881Z,98862.30
2022-10-01T00:22:04.071Z,98862.29
2022-10-01T00:24:32.299Z,98859.53
2022-10-01T00:27:00.808Z,98864.70
2022-10-01T00:29:29.398Z,98862.84
2022-10-01T00:31:58.313Z,98863.05
2022-10-01T00:34:26.969Z,98866.61
2022-10-01T00:36:55.318Z,98871.30
2022-10-01T00:39:26.391Z,98873.48
2022-10-01T00:41:54.731Z,98870.34
2022-10-01T00:44:37.371Z,98872.95
2022-10-01T00:47:20.354Z,98867.96
2022-10-01T00:49:51.000Z,98862.18
2022-10-01T00:52:25.314Z,98863.88
2022-10-01T00:55:08.108Z,98863.56
2022-10-01T00:57:36.253Z,98863.60
2022-10-01T01:00:07.336Z,98865.42
2022-10-01T01:05:47.863Z,98882.66
2022-10-01T01:08:17.114Z,98888.05
2022-10-01T01:11:29.483Z,98879.94
2022-10-01T01:14:11.228Z,98874.56
2022-10-01T01:16:49.062Z,98872.55
2022-10-01T01:19:24.647Z,98867.25
2022-10-01T01:22:00.418Z,98856.56
2022-10-01T01:24:49.551Z,98846.17
2022-10-01T01:27:37.897Z,98844.63
2022-10-01T01:30:10.899Z,98844.40
2022-10-01T01:32:53.350Z,98838.00
2022-10-01T01:35:32.353Z,98833.97
2022-10-01T01:38:06.655Z,98823.73
2022-10-01T01:40:37.530Z,98816.86
2022-10-01T01:43:19.678Z,98819.03
2022-10-01T01:45:52.452Z,98818.92
2022-10-01T01:48:23.904Z,98817.55
2022-10-01T01:50:59.831Z,98818.45
2022-10-01T01:53:32.286Z,98819.88
2022-10-01T01:56:00.843Z,98821.73
2022-10-01T01:58:29.341Z,98824.79
2022-10-01T02:00:57.402Z,98820.84
2022-10-01T02:03:29.300Z,98816.12
2022-10-01T02:06:21.313Z,98811.54
2022-10-01T02:09:15.204Z,98813.95
2022-10-01T02:12:04.531Z,98814.80
2022-10-01T02:14:47.515Z,98816.69
2022-10-01T02:17:29.534Z,98819.33
2022-10-01T02:20:01.463Z,98817.96
2022-10-01T02:22:32.940Z,98821.88
2022-10-01T02:25:05.007Z,98820.95
2022-10-01T02:27:44.607Z,98818.67
2022-10-01T02:30:13.447Z,98816.83
2022-10-01T02:32:44.503Z,98825.40
2022-10-01T02:35:14.771Z,98831.05
2022-10-01T02:37:45.972Z,98833.39
2022-10-01T02:40:16.380Z,98832.80
2022-10-01T02:42:50.038Z,98834.66
2022-10-01T02:45:23.137Z,98834.69
2022-10-01T02:48:02.304Z,98839.73
2022-10-01T02:50:43.039Z,98843.88
2022-10-01T02:53:29.318Z,98838.62
2022-10-01T02:55:59.615Z,98839.51
2022-10-01T02:58:28.432Z,98840.39
2022-10-01T03:00:56.648Z,98847.47
2022-10-01T03:03:26.167Z,98844.52
2022-10-01T03:05:54.406Z,98844.77
2022-10-01T03:08:23.428Z,98840.97
2022-10-01T03:10:51.529Z,98842.89
2022-10-01T03:13:22.022Z,98849.41
2022-10-01T03:15:50.321Z,98848.02
2022-10-01T03:18:18.510Z,98847.98
2022-10-01T03:20:48.256Z,98848.63
2022-10-01T03:23:16.421Z,98846.05
2022-10-01T03:25:44.705Z,98839.48
2022-10-01T03:28:13.568Z,98839.77
2022-10-01T03:30:41.975Z,98840.63
2022-10-01T03:33:10.149Z,98840.30
2022-10-01T03:35:38.418Z,98834.95
2022-10-01T03:38:08.281Z,98826.98
2022-10-01T03:40:39.050Z,98822.83
2022-10-01T03:43:07.391Z,98816.78
2022-10-01T03:45:35.453Z,98819.41
2022-10-01T03:48:03.581Z,98821.04
2022-10-01T03:50:31.796Z,98816.97
2022-10-01T03:53:00.233Z,98814.33
2022-10-01T03:55:28.479Z,98813.71
2022-10-01T03:57:57.240Z,98810.80
2022-10-01T04:00:26.179Z,98807.90
2022-10-01T04:02:54.379Z,98803.59
2022-10-01T04:05:22.724Z,98799.30
2022-10-01T04:07:50.775Z,98797.97
2022-10-01T04:10:19.260Z,98797.14
2022-10-01T04:12:48.111Z,98796.45
2022-10-01T04:15:16.930Z,98795.47
2022-10-01T04:17:46.097Z,98790.49
2022-10-01T04:20:14.653Z,98785.52
2022-10-01T04:22:42.953Z,98782.60
2022-10-01T04:25:11.834Z,98783.71
2022-10-01T04:27:42.000Z,98787.92
2022-10-01T04:30:10.734Z,98789.34
2022-10-01T04:32:38.976Z,98789.17
2022-10-01T04:35:11.767Z,98794.10
2022-10-01T04:37:39.932Z,98793.89
2022-10-01T04:40:10.767Z,98792.25
2022-10-01T04:42:43.662Z,98794.27
2022-10-01T04:45:11.969Z,98795.53
2022-10-01T04:47:50.746Z,98797.05
2022-10-01T04:50:19.312Z,98806.05
2022-10-01T04:52:50.035Z,98808.94
2022-10-01T04:55:20.066Z,98812.73
2022-10-01T04:57:49.533Z,98811.07
2022-10-01T05:00:20.722Z,98808.27
2022-10-01T05:02:50.530Z,98807.05
2022-10-01T05:05:20.873Z,98805.23
2022-10-01T05:08:07.993Z,98810.71
2022-10-01T05:10:55.971Z,98806.36
2022-10-01T05:13:30.811Z,98809.00
2022-10-01T05:16:03.846Z,98814.71
2022-10-01T05:18:32.656Z,98816.15
2022-10-01T05:21:08.057Z,98816.14
2022-10-01T05:23:36.205Z,98809.05
2022-10-01T05:26:05.868Z,98815.47
2022-10-01T05:28:35.216Z,98811.34
2022-10-01T05:31:04.762Z,98814.91
2022-10-01T05:33:34.230Z,98813.75
2022-10-01T05:36:05.186Z,98808.85
2022-10-01T05:38:37.235Z,98813.04
2022-10-01T05:41:05.963Z,98804.70
2022-10-01T05:43:36.169Z,98804.60
2022-10-01T05:46:05.706Z,98802.21
2022-10-01T05:48:37.784Z,98801.02
2022-10-01T05:51:08.525Z,98799.35
2022-10-01T05:53:40.353Z,98795.45
2022-10-01T05:56:08.978Z,98791.04
2022-10-01T05:58:37.225Z,98785.52
2022-10-01T06:01:05.562Z,98788.73
2022-10-01T06:03:33.694Z,98791.56
2022-10-01T06:06:02.026Z,98794.58
2022-10-01T06:08:30.179Z,98784.84
2022-10-01T06:11:02.425Z,98788.05
2022-10-01T06:13:30.943Z,98791.17
2022-10-01T06:15:59.154Z,98796.36
2022-10-01T06:18:27.620Z,98796.27
2022-10-01T06:20:58.954Z,98802.93
2022-10-01T06:23:27.156Z,98807.04
2022-10-01T06:25:55.391Z,98802.27
2022-10-01T06:28:23.476Z,98795.45
2022-10-01T06:30:51.738Z,98788.66
2022-10-01T06:33:20.823Z,98786.23
2022-10-01T06:35:51.183Z,98786.14
2022-10-01T06:38:22.076Z,98786.22
2022-10-01T06:40:57.451Z,98786.11
2022-10-01T06:43:28.590Z,98785.40
2022-10-01T06:45:57.763Z,98785.24
2022-10-01T06:48:26.000Z,98787.38
2022-10-01T06:50:56.016Z,98782.95
2022-10-01T06:53:24.634Z,98782.58
2022-10-01T06:55:52.891Z,98778.30
2022-10-01T06:58:23.406Z,98781.31
2022-10-01T07:00:51.537Z,98781.05
2022-10-01T07:03:21.919Z,98784.61
2022-10-01T07:05:50.386Z,98785.77
2022-10-01T07:08:19.036Z,98788.73
2022-10-01T07:10:47.217Z,98790.34
2022-10-01T07:13:18.080Z,98792.14
2022-10-01T07:15:46.467Z,98794.25
2022-10-01T07:18:15.087Z,98794.91
2022-10-01T07:20:43.313Z,98795.55
2022-10-01T07:23:12.932Z,98792.60
2022-10-01T07:25:42.149Z,98796.30
2022-10-01T07:28:16.909Z,98798.21
2022-10-01T07:31:12.699Z,98800.55
2022-10-01T07:33:41.993Z,98797.95
2022-10-01T07:36:11.605Z,98797.96
2022-10-01T07:38:39.660Z,98796.55
2022-10-01T07:41:07.766Z,98796.86
2022-10-01T07:43:36.637Z,98797.13
2022-10-01T07:46:05.246Z,98792.16
2022-10-01T07:48:33.602Z,98794.93
2022-10-01T07:51:01.805Z,98795.43
2022-10-01T07:53:30.034Z,98798.47
2022-10-01T07:56:01.541Z,98798.19
2022-10-01T07:58:29.852Z,98800.30
2022-10-01T08:01:00.182Z,98793.67
2022-10-01T08:03:28.358Z,98798.16
2022-10-01T08:05:56.849Z,98793.11
2022-10-01T08:08:25.146Z,98790.43
2022-10-01T08:10:53.411Z,98786.21
2022-10-01T08:13:25.099Z,98786.15
2022-10-01T08:15:56.158Z,98782.11
2022-10-01T08:18:24.494Z,98776.47
2022-10-01T08:20:52.677Z,98772.38
2022-10-01T08:23:21.767Z,98772.16
2022-10-01T08:25:49.926Z,98769.98
2022-10-01T08:28:18.353Z,98765.73
2022-10-01T08:30:46.609Z,98761.88
2022-10-01T08:33:15.290Z,98756.36
2022-10-01T08:35:43.866Z,98754.98
2022-10-01T08:38:13.101Z,98754.19
2022-10-01T08:40:47.347Z,98748.95
2022-10-01T08:43:18.742Z,98735.27
2022-10-01T08:45:53.053Z,98730.58
2022-10-01T08:48:58.859Z,98726.36
2022-10-01T08:51:52.053Z,98723.81
2022-10-01T08:54:42.985Z,98721.83
2022-10-01T08:57:17.244Z,98727.37
2022-10-01T08:59:50.011Z,98728.88
2022-10-01T09:02:29.203Z,98726.43
2022-10-01T09:05:02.136Z,98726.55
2022-10-01T09:07:45.938Z,98720.41
2022-10-01T09:10:32.140Z,98719.21
2022-10-01T09:13:18.761Z,98715.90
2022-10-01T09:16:18.670Z,98718.70
2022-10-01T09:18:53.044Z,98712.29
2022-10-01T09:21:53.892Z,98708.46
2022-10-01T09:24:38.440Z,98702.40
2022-10-01T09:27:33.756Z,98703.30
2022-10-01T09:30:14.029Z,98706.27
2022-10-01T09:32:48.264Z,98699.65
2022-10-01T09:35:23.728Z,98698.73
2022-10-01T09:38:02.503Z,98694.74
2022-10-01T09:40:38.710Z,98691.13
2022-10-01T09:43:09.698Z,98688.46
2022-10-01T09:45:38.996Z,98687.17
2022-10-01T09:48:24.332Z,98680.00
2022-10-01T09:50:59.076Z,98671.02
2022-10-01T09:53:48.169Z,98666.61
2022-10-01T09:56:29.875Z,98663.20
2022-10-01T09:59:02.073Z,98660.28
2022-10-01T10:01:44.492Z,98657.55
2022-10-01T10:04:21.025Z,98654.39
2022-10-01T10:06:50.930Z,98651.98
2022-10-01T10:09:25.916Z,98649.66
2022-10-01T10:11:56.805Z,98645.63
2022-10-01T10:14:41.279Z,98643.20
2022-10-01T10:17:18.002Z,98644.88
2022-10-01T10:19:51.775Z,98643.98
2022-10-01T10:22:24.996Z,98641.64
2022-10-01T10:24:56.040Z,98636.23
2022-10-01T10:27:30.781Z,98628.61
2022-10-01T10:30:14.102Z,98623.23
2022-10-01T10:32:45.708Z,98619.48
2022-10-01T10:35:23.832Z,98611.63
2022-10-01T10:38:00.253Z,98605.09
2022-10-01T10:40:34.736Z,98603.38
2022-10-01T10:43:03.330Z,98595.51
2022-10-01T10:45:39.042Z,98592.91
2022-10-01T10:48:15.410Z,98583.52
2022-10-01T10:50:46.532Z,98578.36
2022-10-01T10:53:27.614Z,98575.77
2022-10-01T10:56:01.445Z,98571.44
2022-10-01T10:58:33.353Z,98569.82
2022-10-01T11:01:09.987Z,98563.82
2022-10-01T11:03:44.491Z,98563.39
2022-10-01T11:06:15.153Z,98560.04
2022-10-01T11:08:44.035Z,98558.95
2022-10-01T11:11:42.983Z,98553.58
2022-10-01T11:14:22.729Z,98546.11
2022-10-01T11:17:16.795Z,98542.82
2022-10-01T11:20:10.763Z,98545.00
2022-10-01T11:22:57.643Z,98540.67
2022-10-01T11:25:31.655Z,98534.58
2022-10-01T11:28:18.957Z,98534.67
2022-10-01T11:30:50.200Z,98529.61
2022-10-01T11:33:52.198Z,98525.65
2022-10-01T11:36:36.053Z,98520.97
2022-10-01T11:39:17.144Z,98514.34
2022-10-01T11:41:47.876Z,98507.09
2022-10-01T11:44:25.647Z,98504.55
2022-10-01T11:47:02.158Z,98502.39
2022-10-01T11:49:48.116Z,98497.53
2022-10-01T11:52:25.078Z,98496.03
2022-10-01T11:55:20.754Z,98492.27
2022-10-01T11:58:14.145Z,98486.84
2022-10-01T12:00:53.184Z,98481.17
2022-10-01T12:03:28.895Z,98478.20
2022-10-01T12:05:58.288Z,98484.10
2022-10-01T12:08:31.965Z,98481.73
2022-10-01T12:11:11.875Z,98476.39
2022-10-01T12:13:56.669Z,98469.62
2022-10-01T12:16:37.151Z,98461.62
2022-10-01T12:19:14.846Z,98453.13
2022-10-01T12:21:56.600Z,98447.59
2022-10-01T12:24:34.111Z,98446.47
2022-10-01T12:27:24.090Z,98441.28
2022-10-01T12:30:07.546Z,98442.58
2022-10-01T12:32:47.485Z,98438.00
2022-10-01T12:35:35.581Z,98438.16
2022-10-01T12:38:13.142Z,98441.58
2022-10-01T12:40:51.383Z,98442.08
2022-10-01T12:43:57.547Z,98438.40
2022-10-01T12:46:30.524Z,98430.14
2022-10-01T12:49:14.754Z,98430.14
2022-10-01T12:51:56.450Z,98431.86
2022-10-01T12:54:47.730Z,98432.67
2022-10-01T12:57:33.091Z,98429.00
2022-10-01T13:00:19.974Z,98425.23
2022-10-01T13:03:10.073Z,98420.31
2022-10-01T13:05:56.588Z,98417.72
2022-10-01T13:08:49.100Z,98416.42
2022-10-01T13:11:37.665Z,98415.88
2022-10-01T13:14:11.948Z,98412.91
2022-10-01T13:17:26.236Z,98409.23
2022-10-01T13:20:09.207Z,98404.59
2022-10-01T13:22:50.954Z,98401.78
2022-10-01T13:25:51.374Z,98398.05
2022-10-01T13:28:30.669Z,98396.55
2022-10-01T13:31:15.090Z,98387.97
2022-10-01T13:33:55.084Z,98386.98
2022-10-01T13:36:31.880Z,98386.03
2022-10-01T13:39:00.636Z,98383.67
2022-10-01T13:41:32.505Z,98384.25
2022-10-01T13:44:09.461Z,98381.08
2022-10-01T13:46:51.546Z,98376.27
2022-10-01T13:49:43.216Z,98376.11
2022-10-01T13:52:20.115Z,98379.45
2022-10-01T13:54:52.556Z,98377.23
2022-10-01T13:57:26.467Z,98373.41
2022-10-01T14:00:02.751Z,98374.15
2022-10-01T14:02:39.687Z,98373.67
2022-10-01T14:05:42.691Z,98367.95
2022-10-01T14:08:25.258Z,98363.56
2022-10-01T14:11:33.588Z,98359.69
2022-10-01T14:14:31.260Z,98357.31
2022-10-01T14:17:00.390Z,98357.15
2022-10-01T14:19:29.084Z,98347.05
2022-10-01T14:22:34.528Z,98345.55
2022-10-01T14:25:23.769Z,98339.29
2022-10-01T14:28:07.013Z,98335.66
2022-10-01T14:31:14.491Z,98330.38
2022-10-01T14:34:02.866Z,98325.15
2022-10-01T14:36:40.177Z,98324.02
2022-10-01T14:39:21.991Z,98319.11
2022-10-01T14:41:52.762Z,98315.11
2022-10-01T14:44:25.664Z,98314.35
2022-10-01T14:46:59.554Z,98308.64
2022-10-01T14:49:30.631Z,98301.30
2022-10-01T14:52:03.135Z,98291.36
2022-10-01T14:54:42.336Z,98284.29
2022-10-01T14:57:27.012Z,98289.80
2022-10-01T14:59:57.505Z,98285.64
2022-10-01T15:02:33.916Z,98284.94
2022-10-01T15:05:39.915Z,98278.73
2022-10-01T15:08:48.008Z,98273.71
2022-10-01T15:11:29.099Z,98273.39
2022-10-01T15:14:06.863Z,98265.52
2022-10-01T15:16:36.692Z,98261.05
2022-10-01T15:19:24.052Z,98257.37
2022-10-01T15:21:57.999Z,98250.35
2022-10-01T15:24:47.057Z,98245.92
2022-10-01T15:27:19.729Z,98248.95
2022-10-01T15:29:56.041Z,98245.00
2022-10-01T15:32:26.954Z,98246.30
2022-10-01T15:34:58.168Z,98248.95
2022-10-01T15:37:35.940Z,98249.48
2022-10-01T15:40:06.780Z,98250.30
2022-10-01T15:42:36.078Z,98247.42
2022-10-01T15:45:07.442Z,98246.07
2022-10-01T15:47:41.386Z,98243.50
2022-10-01T15:50:12.579Z,98243.75
2022-10-01T15:53:06.948Z,98244.72
2022-10-01T15:55:41.430Z,98241.41
2022-10-01T15:58:19.048Z,98235.70
2022-10-01T16:00:47.590Z,98237.15
2022-10-01T16:03:31.391Z,98228.36
2022-10-01T16:06:05.275Z,98224.52
2022-10-01T16:08:48.919Z,98225.70
2022-10-01T16:11:20.906Z,98220.35
2022-10-01T16:13:52.715Z,98221.15
2022-10-01T16:16:24.769Z,98219.84
2022-10-01T16:19:21.938Z,98222.18
2022-10-01T16:22:19.567Z,98218.08
2022-10-01T16:24:52.039Z,98220.38
2022-10-01T16:27:22.109Z,98218.06
2022-10-01T16:29:53.474Z,98219.30
2022-10-01T16:32:21.841Z,98219.77
2022-10-01T16:34:50.414Z,98217.94
2022-10-01T16:37:18.772Z,98216.90
2022-10-01T16:39:47.131Z,98215.86
2022-10-01T16:42:24.923Z,98208.81
2022-10-01T16:44:53.325Z,98206.34
2022-10-01T16:47:21.354Z,98205.46
2022-10-01T16:49:52.818Z,98203.30
2022-10-01T16:52:21.437Z,98194.56
2022-10-01T16:54:49.639Z,98196.77
2022-10-01T16:57:17.998Z,98195.68
2022-10-01T16:59:46.325Z,98197.39
2022-10-01T17:02:15.335Z,98193.61
2022-10-01T17:04:43.716Z,98196.46
2022-10-01T17:07:12.036Z,98191.98
2022-10-01T17:09:41.132Z,98190.20
2022-10-01T17:12:09.743Z,98191.22
2022-10-01T17:14:40.675Z,98189.82
2022-10-01T17:17:08.916Z,98191.57
2022-10-01T17:19:37.182Z,98187.20
2022-10-01T17:22:05.635Z,98185.69
2022-10-01T17:24:33.668Z,98186.39
2022-10-01T17:27:02.019Z,98183.68
2022-10-01T17:29:32.386Z,98178.45
2022-10-01T17:32:00.515Z,98179.39
2022-10-01T17:34:28.896Z,98172.77
2022-10-01T17:36:59.898Z,98172.41
2022-10-01T17:39:27.944Z,98168.64
2022-10-01T17:41:56.094Z,98169.16
2022-10-01T17:44:24.365Z,98174.17
2022-10-01T17:46:52.488Z,98171.64
2022-10-01T17:49:20.821Z,98169.09
2022-10-01T17:51:49.581Z,98169.25
2022-10-01T17:54:17.872Z,98170.54
2022-10-01T17:56:46.079Z,98166.40
2022-10-01T17:59:15.027Z,98164.28
2022-10-01T18:01:43.706Z,98163.45
2022-10-01T18:04:15.141Z,98161.22
2022-10-01T18:06:43.818Z,98159.00
2022-10-01T18:09:11.920Z,98159.59
2022-10-01T18:11:41.034Z,98156.92
2022-10-01T18:14:09.422Z,98155.30
2022-10-01T18:16:38.464Z,98155.27
2022-10-01T18:21:56.122Z,98154.18
2022-10-01T18:24:24.719Z,98152.66
2022-10-01T18:26:53.071Z,98149.20
2022-10-01T18:29:23.926Z,98154.15
2022-10-01T18:32:15.020Z,98185.19
2022-10-01T18:34:57.929Z,98197.83
2022-10-01T18:37:39.064Z,98206.32
2022-10-01T18:40:13.633Z,98220.94
2022-10-01T18:43:06.631Z,98224.16
2022-10-01T18:45:59.044Z,98225.25
2022-10-01T18:48:45.598Z,98234.36
2022-10-01T18:51:26.009Z,98232.10
2022-10-01T18:54:22.035Z,98238.34
2022-10-01T18:57:05.381Z,98244.98
2022-10-01T18:59:47.045Z,98241.77
2022-10-01T19:02:30.318Z,98243.39
2022-10-01T19:05:05.455Z,98243.73
2022-10-01T19:08:04.632Z,98245.88
2022-10-01T19:10:41.286Z,98250.84
2022-10-01T19:13:20.576Z,98253.64
2022-10-01T19:16:26.341Z,98251.61
2022-10-01T19:19:25.563Z,98251.55
2022-10-01T19:22:01.151Z,98256.46
2022-10-01T19:24:41.520Z,98258.55
2022-10-01T19:30:10.142Z,98259.30
2022-10-01T19:33:08.854Z,98259.89
2022-10-01T19:35:50.336Z,98255.13
2022-10-01T19:38:41.017Z,98255.29
2022-10-01T19:41:45.102Z,98253.27
2022-10-01T19:44:52.297Z,98253.81
2022-10-01T19:47:44.040Z,98251.32
2022-10-01T19:50:29.783Z,98249.75
2022-10-01T19:53:02.451Z,98250.52
2022-10-01T19:55:38.880Z,98252.08
2022-10-01T19:58:18.635Z,98249.63
2022-10-01T20:00:51.684Z,98253.67
2022-10-01T20:03:47.053Z,98257.35
2022-10-01T20:06:25.234Z,98255.33
2022-10-01T20:09:00.285Z,98253.77
2022-10-01T20:11:59.303Z,98255.16
2022-10-01T20:14:57.358Z,98254.95
2022-10-01T20:17:30.884Z,98251.80
2022-10-01T20:20:16.855Z,98253.14
2022-10-01T20:22:56.773Z,98251.64
2022-10-01T20:25:32.209Z,98249.27
2022-10-01T20:28:19.479Z,98253.54
2022-10-01T20:30:58.297Z,98255.25
2022-10-01T20:34:08.510Z,98256.29
2022-10-01T20:36:56.820Z,98259.64
2022-10-01T20:39:31.329Z,98265.26
2022-10-01T20:42:01.057Z,98268.89
2022-10-01T20:44:36.373Z,98271.15
2022-10-01T20:47:16.507Z,98270.21
2022-10-01T20:49:51.640Z,98269.84
2022-10-01T20:52:22.660Z,98265.15
2022-10-01T20:54:54.547Z,98270.73
2022-10-01T20:57:41.865Z,98274.54
2022-10-01T21:00:24.608Z,98268.65
2022-10-01T21:03:11.011Z,98269.67
2022-10-01T21:05:47.046Z,98270.66
2022-10-01T21:08:47.366Z,98274.80
2022-10-01T21:11:37.341Z,98269.70
2022-10-01T21:14:23.027Z,98271.48
2022-10-01T21:17:15.472Z,98271.45
2022-10-01T21:20:11.758Z,98270.66
2022-10-01T21:23:01.682Z,98272.09
2022-10-01T21:25:35.709Z,98271.16
2022-10-01T21:28:42.548Z,98272.35
2022-10-01T21:31:32.309Z,98270.85
2022-10-01T21:34:14.503Z,98274.73
2022-10-01T21:36:59.046Z,98277.75
2022-10-01T21:39:32.222Z,98277.50
2022-10-01T21:42:42.387Z,98278.45
2022-10-01T21:45:42.154Z,98280.17
2022-10-01T21:48:19.282Z,98279.88
2022-10-01T21:50:53.341Z,98280.73
2022-10-01T21:53:55.508Z,98281.49
2022-10-01T21:56:46.844Z,98285.15
2022-10-01T21:59:39.160Z,98288.39
2022-10-01T22:02:19.661Z,98295.27
2022-10-01T22:04:54.555Z,98293.24
2022-10-01T22:07:32.803Z,98295.63
2022-10-01T22:10:09.739Z,98291.05
2022-10-01T22:12:42.685Z,98296.51
2022-10-01T22:15:31.468Z,98301.19
2022-10-01T22:18:02.236Z,98301.26
2022-10-01T22:20:32.431Z,98300.39
2022-10-01T22:23:06.696Z,98299.00
2022-10-01T22:25:40.484Z,98296.11
2022-10-01T22:28:16.787Z,98300.81
2022-10-01T22:30:48.202Z,98299.66
2022-10-01T22:33:22.264Z,98298.83
2022-10-01T22:36:05.461Z,98299.80
2022-10-01T22:38:46.560Z,98299.69
2022-10-01T22:41:41.497Z,98301.56
2022-10-01T22:44:19.281Z,98306.70
2022-10-01T22:46:58.556Z,98308.23
2022-10-01T22:49:50.134Z,98307.75
2022-10-01T22:52:33.934Z,98308.61
2022-10-01T22:55:24.681Z,98311.20
2022-10-01T22:57:52.887Z,98313.13
2022-10-01T23:00:21.436Z,98316.19
2022-10-01T23:03:23.792Z,98311.71
2022-10-01T23:06:15.439Z,98312.38
2022-10-01T23:08:47.197Z,98317.77
2022-10-01T23:11:25.015Z,98322.45
2022-10-01T23:14:06.443Z,98325.62
2022-10-01T23:17:04.678Z,98329.85
2022-10-01T23:19:52.810Z,98327.35
2022-10-01T23:22:44.491Z,98328.19
2022-10-01T23:25:18.170Z,98327.98
2022-10-01T23:28:19.300Z,98331.38
2022-10-01T23:30:56.263Z,98329.20
2022-10-01T23:33:45.134Z,98336.40
2022-10-01T23:36:16.857Z,98337.67
2022-10-01T23:38:56.344Z,98339.27
2022-10-01T23:41:41.210Z,98343.55
2022-10-01T23:44:52.911Z,98343.42
2022-10-01T23:47:36.524Z,98343.92
2022-10-01T23:50:08.482Z,98347.45
2022-10-01T23:52:42.776Z,98348.39
2022-10-01T23:55:54.436Z,98346.10
2022-10-01T23:58:24.256Z,98351.95
